Impacts TAF Board
For situational awareness. Not to be used for flight planning purposes.
IDs:

EDDK - Koln-Bonn Arpt, --, DL

Issued at 1700 UTC 13 Aug 2020
Updated at 2013 UTC 13 Aug 2020
Potential Impact None Slight Moderate High
Time1950Z 13/21Z 13/22Z 13/23Z 14/00Z 14/01Z 14/02Z 14/03Z 14/04Z 14/05Z 14/06Z 14/07Z 14/08Z 14/09Z>>
Type OBS PRVL PRVL PRVL PRVL PRVL PRVL PRVL PRVL PRVL PRVL PRVL PRVL PRVL
VIS >6 >6 >6 >6 >6 >6 >6 >6 >6 >6 >6 >6 >6 >6
CIG -- -- -- -- -- -- -- -- -- -- -- -- -- --
Cover CAVOK NSC NSC NSC NSC NSC NSC NSC NSC NSC NSC NSC NSC NSC
FltCat VFR VFR VFR VFR VFR VFR VFR VFR VFR VFR VFR VFR VFR VFR
WX -- NSW NSW NSW NSW NSW NSW NSW NSW NSW NSW NSW NSW NSW
WDir VRB 120 120 120 120 120 120 120 120 120 120 120 240 240
WSpd 6 4 4 4 4 4 4 4 4 4 4 4 6 6
WGst -- -- -- -- -- -- -- -- -- -- -- -- -- --
Raw TAF
TAF EDDK 131700Z 1318/1424 20008KT CAVOK
  BECMG 1318/1321 12004KT
  PROB30
  TEMPO 1318/1320 21020G35KT 3000 TSRA BKN040CB
  BECMG 1408/1411 24006KT
  TEMPO 1412/1420 24020G35KT TSRA BKN040CB
  BECMG 1416/1419 16005KT


Raw METAR
EDDK 131950Z VRB06KT CAVOK 25/19 Q1012 NOSIG
EDDK 131920Z 15005KT CAVOK 26/19 Q1012 NOSIG
EDDK 131850Z 19003KT 160V220 CAVOK 25/19 Q1011 BECMG 12005KT
EDDK 131820Z 21004KT 190V250 CAVOK 27/19 Q1011 BECMG 12005KT
EDDK 131750Z 20007KT CAVOK 29/18 Q1011 BECMG 12005KT

METAR Board
For situational awareness. Not to be used for flight planning purposes.